Nampula Airport

Airport
ICAO code: 
FQNP
IATA Code: 
APL
Summary
ICAO Region: 
AFI
Territory: 
Location: 
Nampula,
Serving: 
Nampula
Elevation: 
1444 ft
Coordinates: 
Aerial View: 
15° 6' 16.34" S, 39° 16' 58.522" E
Metar
Observation
FQNP 241500Z 36014G25KT 9999 SCT009 OVC020 25/21 Q1000
Station
Nampula
Date/Time
2022-01-24 15:00:00
Wind direction
360°
Wind speed
14 kts
Lowest cloud amount
scattered clouds
Temperature
25°C
Dew point
21°C
Humidity
78%
QNH
1000 hPa
Weather condition
n/a

Runways

Designator Length Width Surface Rops
13/31 1565 45 GVL No/No
5/23 2000 45 ASP No/No
Airport map: 
Aerial View: 

SKYbrary Partners:

Safety knowledge contributed by: